Time;durP1;ratioP1;P1;durP2;ratioP2;P2;SDS_P1;SDS_P2;PMS_P1;PMS_P2;Temp;Humidity;BMP_temperature;BMP_pressure;BME280_temperature;BME280_humidity;BME280_pressure;Samples;Min_cycle;Max_cycle;Signal;HPM_P1;HPM_P2
2024/01/18 00:01:12;;;;;;;0.00;0.00;;;23.40;49.10;;;;;;4992800;28;20208;-44
2024/01/18 00:03:43;;;;;;;0.10;0.10;;;23.50;49.20;;;;;;5006005;28;20280;-44
2024/01/18 00:06:14;;;;;;;0.00;0.00;;;23.40;49.20;;;;;;5012743;28;20208;-44
2024/01/18 00:08:46;;;;;;;0.00;0.00;;;23.40;49.30;;;;;;5012692;28;20258;-43
2024/01/18 00:11:17;;;;;;;0.00;0.00;;;23.50;49.50;;;;;;5012661;28;20594;-44
2024/01/18 00:13:48;;;;;;;0.00;0.00;;;23.50;49.50;;;;;;5025448;22;20255;-45
2024/01/18 00:16:19;;;;;;;0.00;0.00;;;23.50;49.60;;;;;;5012553;28;20208;-48
2024/01/18 00:18:50;;;;;;;0.00;0.00;;;23.50;49.50;;;;;;5012372;28;20228;-44
2024/01/18 00:21:20;;;;;;;0.00;0.00;;;23.50;49.60;;;;;;5012698;28;20197;-47
2024/01/18 00:23:53;;;;;;;0.10;0.10;;;23.50;49.60;;;;;;5012453;28;20219;-45
2024/01/18 00:26:24;;;;;;;0.00;0.00;;;23.50;49.50;;;;;;5012367;28;20657;-45
2024/01/18 00:28:54;;;;;;;0.10;0.10;;;23.50;49.60;;;;;;5012395;28;20200;-44
2024/01/18 00:31:25;;;;;;;0.08;0.08;;;23.50;49.60;;;;;;5012246;28;20205;-47
2024/01/18 00:33:57;;;;;;;0.00;0.00;;;23.50;49.70;;;;;;4995966;28;20198;-44
2024/01/18 00:36:29;;;;;;;0.00;0.00;;;23.50;49.70;;;;;;4992479;28;20216;-43
2024/01/18 00:39:08;;;;;;;0.00;0.00;;;23.50;49.80;;;;;;5011410;28;20252;-47
2024/01/18 00:41:40;;;;;;;0.00;0.00;;;23.50;49.90;;;;;;5011935;28;20266;-46
2024/01/18 00:44:11;;;;;;;0.00;0.00;;;23.50;50.00;;;;;;5012135;28;20215;-47
2024/01/18 00:46:42;;;;;;;0.00;0.00;;;23.50;50.10;;;;;;5012059;28;20653;-47
2024/01/18 00:49:12;;;;;;;0.00;0.00;;;23.50;50.20;;;;;;5011828;28;20223;-43
2024/01/18 00:51:43;;;;;;;0.00;0.00;;;23.50;50.30;;;;;;5010586;28;20224;-43
2024/01/18 00:54:16;;;;;;;0.00;0.00;;;23.50;50.40;;;;;;4991911;28;20224;-42
2024/01/18 00:56:46;;;;;;;0.00;0.00;;;23.60;50.50;;;;;;4992264;28;20658;-43
2024/01/18 00:59:17;;;;;;;0.00;0.00;;;23.60;50.50;;;;;;4992180;28;20232;-44
2024/01/18 01:01:48;;;;;;;0.00;0.00;;;23.60;50.40;;;;;;4991671;28;20221;-43
2024/01/18 01:04:18;;;;;;;0.00;0.00;;;23.60;50.40;;;;;;4992146;28;20633;-43
2024/01/18 01:06:49;;;;;;;0.10;0.10;;;23.60;50.50;;;;;;4993215;28;20271;-45
2024/01/18 01:09:22;;;;;;;0.00;0.00;;;23.60;50.60;;;;;;5011633;28;20192;-45
2024/01/18 01:11:52;;;;;;;0.03;0.03;;;23.60;50.70;;;;;;5011558;28;20223;-44
2024/01/18 01:14:23;;;;;;;0.00;0.00;;;23.60;50.60;;;;;;5023766;23;20327;-44
2024/01/18 01:16:54;;;;;;;0.00;0.00;;;23.60;50.70;;;;;;5011622;28;20602;-44
2024/01/18 01:19:24;;;;;;;0.00;0.00;;;23.70;50.80;;;;;;5010906;28;20606;-45
2024/01/18 01:21:55;;;;;;;0.00;0.00;;;23.70;50.80;;;;;;5011255;28;20719;-45
2024/01/18 01:24:28;;;;;;;0.10;0.10;;;23.70;50.90;;;;;;5011088;28;20193;-45
2024/01/18 01:26:58;;;;;;;0.00;0.00;;;23.70;51.00;;;;;;5011279;28;20200;-44
2024/01/18 01:29:29;;;;;;;0.00;0.00;;;23.70;51.00;;;;;;5011349;28;20228;-45
2024/01/18 01:32:00;;;;;;;0.00;0.00;;;23.70;51.20;;;;;;5011047;28;20227;-44
2024/01/18 01:34:30;;;;;;;0.00;0.00;;;23.70;51.20;;;;;;5011459;28;20200;-44
2024/01/18 01:37:01;;;;;;;0.00;0.00;;;23.70;51.20;;;;;;5009229;28;20211;-44
2024/01/18 01:39:33;;;;;;;0.00;0.00;;;23.70;51.10;;;;;;4991937;28;20240;-45
2024/01/18 01:42:05;;;;;;;0.00;0.00;;;23.70;51.20;;;;;;4991686;28;20232;-44
2024/01/18 01:44:35;;;;;;;0.05;0.05;;;23.70;51.00;;;;;;4991531;28;20204;-45
2024/01/18 01:47:06;;;;;;;0.00;0.00;;;23.70;51.10;;;;;;4991375;28;20248;-44
2024/01/18 01:49:37;;;;;;;0.00;0.00;;;23.80;51.20;;;;;;4991232;28;20205;-44
2024/01/18 01:52:08;;;;;;;0.00;0.00;;;23.70;51.00;;;;;;4991267;28;20221;-44
2024/01/18 01:54:41;;;;;;;0.00;0.00;;;23.80;51.00;;;;;;4991796;28;20197;-44
2024/01/18 01:57:12;;;;;;;0.00;0.00;;;23.80;50.90;;;;;;4991573;28;20198;-44
2024/01/18 01:59:42;;;;;;;0.00;0.00;;;23.80;50.80;;;;;;4992241;28;20225;-44
2024/01/18 02:02:14;;;;;;;0.10;0.10;;;23.80;51.00;;;;;;5010461;28;20689;-45
2024/01/18 02:04:46;;;;;;;0.00;0.00;;;23.80;51.00;;;;;;5010179;28;20201;-44
2024/01/18 02:07:17;;;;;;;0.05;0.05;;;23.80;51.00;;;;;;5010947;28;20243;-45
2024/01/18 02:09:50;;;;;;;0.00;0.00;;;23.90;50.90;;;;;;5011565;28;20280;-44
2024/01/18 02:12:21;;;;;;;0.00;0.00;;;23.90;50.90;;;;;;5011453;28;20693;-45
2024/01/18 02:14:52;;;;;;;0.00;0.00;;;23.90;50.80;;;;;;5012305;28;20292;-45
2024/01/18 02:17:23;;;;;;;0.00;0.00;;;23.90;50.80;;;;;;5014743;28;20263;-44
2024/01/18 02:19:53;;;;;;;0.00;0.00;;;23.90;50.80;;;;;;5014667;28;20235;-44
2024/01/18 02:22:28;;;;;;;0.00;0.00;;;23.90;50.90;;;;;;5014678;28;20220;-44
2024/01/18 02:25:14;;;;;;;0.00;0.00;;;24.00;51.00;;;;;;5014723;28;20201;-45
2024/01/18 02:27:44;;;;;;;0.00;0.00;;;24.00;51.10;;;;;;5014024;28;20193;-44
2024/01/18 02:30:16;;;;;;;0.00;0.00;;;24.00;51.00;;;;;;5014090;28;20208;-44
2024/01/18 02:32:46;;;;;;;0.00;0.00;;;24.00;51.10;;;;;;5014242;28;20487;-44
2024/01/18 02:35:17;;;;;;;0.00;0.00;;;24.10;51.10;;;;;;5014226;28;20201;-44
2024/01/18 02:37:48;;;;;;;0.00;0.00;;;24.10;51.20;;;;;;5014318;28;20208;-45
2024/01/18 02:40:21;;;;;;;0.00;0.00;;;24.10;51.20;;;;;;5014296;28;20232;-44
2024/01/18 02:42:52;;;;;;;0.00;0.00;;;24.10;51.30;;;;;;5014351;28;20221;-45
2024/01/18 02:45:22;;;;;;;0.00;0.00;;;24.20;51.50;;;;;;5014434;28;20257;-44
2024/01/18 02:47:53;;;;;;;0.00;0.00;;;24.20;51.40;;;;;;5014407;28;20196;-45
2024/01/18 02:50:24;;;;;;;0.00;0.00;;;24.20;52.00;;;;;;5013409;28;20205;-44
2024/01/18 02:52:54;;;;;;;0.00;0.00;;;24.30;51.40;;;;;;5013385;28;20253;-44
2024/01/18 02:55:27;;;;;;;0.00;0.00;;;24.30;51.50;;;;;;5013739;28;20208;-44
2024/01/18 02:57:58;;;;;;;0.00;0.00;;;24.30;51.50;;;;;;5013773;28;20223;-44
2024/01/18 03:00:28;;;;;;;0.00;0.00;;;24.30;51.50;;;;;;5013585;28;20228;-44
2024/01/18 03:02:59;;;;;;;0.00;0.00;;;24.40;51.70;;;;;;5013310;28;20220;-44
2024/01/18 03:05:30;;;;;;;0.00;0.00;;;24.40;51.70;;;;;;5013565;28;20196;-44
2024/01/18 03:08:00;;;;;;;0.03;0.03;;;24.50;51.90;;;;;;5013826;28;20212;-44
2024/01/18 03:10:33;;;;;;;0.00;0.00;;;24.50;51.90;;;;;;5013915;28;20675;-45
2024/01/18 03:13:04;;;;;;;0.00;0.00;;;24.50;52.10;;;;;;5013886;28;20225;-44
2024/01/18 03:15:34;;;;;;;0.00;0.00;;;24.50;51.90;;;;;;5014004;28;20255;-44
2024/01/18 03:18:05;;;;;;;0.00;0.00;;;24.60;51.90;;;;;;5013657;28;20707;-44
2024/01/18 03:20:36;;;;;;;0.00;0.00;;;24.60;51.90;;;;;;5013677;28;20715;-45
2024/01/18 03:23:07;;;;;;;0.00;0.00;;;24.60;51.90;;;;;;5013165;28;20252;-44
2024/01/18 03:25:40;;;;;;;0.00;0.00;;;24.70;52.00;;;;;;5012590;28;20201;-44
2024/01/18 03:28:11;;;;;;;0.00;0.00;;;24.70;52.00;;;;;;5013072;28;20204;-44
2024/01/18 03:30:41;;;;;;;0.00;0.00;;;24.70;51.90;;;;;;5013230;28;20612;-44
2024/01/18 03:33:12;;;;;;;0.00;0.00;;;24.80;51.90;;;;;;5013078;28;20221;-44
2024/01/18 03:35:43;;;;;;;0.00;0.00;;;24.90;51.90;;;;;;5013584;28;20220;-45
2024/01/18 03:38:14;;;;;;;0.00;0.00;;;24.90;52.10;;;;;;5013285;28;20251;-44
2024/01/18 03:40:46;;;;;;;0.00;0.00;;;24.90;52.10;;;;;;5013411;28;20225;-45
2024/01/18 03:43:17;;;;;;;0.00;0.00;;;24.90;52.10;;;;;;5005958;28;20578;-45
2024/01/18 03:45:48;;;;;;;0.00;0.00;;;25.00;52.10;;;;;;4993690;28;20198;-44
2024/01/18 03:48:18;;;;;;;0.00;0.00;;;25.00;52.10;;;;;;4994016;28;20233;-45
2024/01/18 03:50:49;;;;;;;0.00;0.00;;;25.00;52.10;;;;;;4993055;28;20220;-45
2024/01/18 03:53:20;;;;;;;0.10;0.10;;;25.10;52.10;;;;;;4992996;28;20213;-45
2024/01/18 03:55:52;;;;;;;0.03;0.03;;;25.10;52.00;;;;;;4993293;28;20333;-45
2024/01/18 03:58:23;;;;;;;0.00;0.00;;;25.10;52.00;;;;;;4993471;28;20202;-45
2024/01/18 04:00:54;;;;;;;0.00;0.00;;;25.20;52.00;;;;;;4993453;28;20693;-45
2024/01/18 04:03:25;;;;;;;0.00;0.00;;;25.20;52.00;;;;;;5012551;28;20216;-46
2024/01/18 04:05:55;;;;;;;0.00;0.00;;;25.30;52.00;;;;;;5012759;28;20201;-45
2024/01/18 04:08:26;;;;;;;0.00;0.00;;;25.30;52.00;;;;;;5012571;28;20243;-45
2024/01/18 04:10:59;;;;;;;0.00;0.00;;;25.30;51.90;;;;;;5012825;28;20212;-46
2024/01/18 04:13:29;;;;;;;0.00;0.00;;;25.30;51.80;;;;;;5012328;28;20220;-45
2024/01/18 04:16:00;;;;;;;0.00;0.00;;;25.40;51.80;;;;;;5012777;28;20200;-45
2024/01/18 04:18:31;;;;;;;0.00;0.00;;;25.40;51.70;;;;;;5012533;28;20197;-45
2024/01/18 04:21:01;;;;;;;0.00;0.00;;;25.40;51.70;;;;;;5012678;28;20228;-45
2024/01/18 04:23:32;;;;;;;0.00;0.00;;;25.50;51.70;;;;;;5012236;28;20274;-45
2024/01/18 04:26:05;;;;;;;0.00;0.00;;;25.50;51.70;;;;;;5012436;28;20661;-45
2024/01/18 04:28:36;;;;;;;0.00;0.00;;;25.60;51.70;;;;;;5012092;28;20199;-44
2024/01/18 04:31:07;;;;;;;0.00;0.00;;;25.60;51.70;;;;;;5012079;28;20566;-45
2024/01/18 04:33:37;;;;;;;0.00;0.00;;;25.60;51.60;;;;;;5011923;28;20597;-44
2024/01/18 04:36:09;;;;;;;0.00;0.00;;;25.60;51.60;;;;;;5012411;28;20669;-44
2024/01/18 04:38:41;;;;;;;0.00;0.00;;;25.60;51.50;;;;;;5011355;28;20204;-45
2024/01/18 04:41:13;;;;;;;0.00;0.00;;;25.60;51.50;;;;;;5011689;28;20200;-46
2024/01/18 04:43:44;;;;;;;0.00;0.00;;;25.60;51.50;;;;;;5011651;28;20251;-44
2024/01/18 04:46:15;;;;;;;0.00;0.00;;;25.60;51.50;;;;;;5012022;28;20208;-45
2024/01/18 04:48:45;;;;;;;0.00;0.00;;;25.60;51.40;;;;;;5011793;28;20201;-45
2024/01/18 04:51:16;;;;;;;0.00;0.00;;;25.60;51.50;;;;;;5011624;28;20197;-46
2024/01/18 04:53:47;;;;;;;0.00;0.00;;;25.60;51.40;;;;;;5010977;28;20192;-44
2024/01/18 04:56:19;;;;;;;0.00;0.00;;;25.60;51.50;;;;;;5011332;28;20204;-45
2024/01/18 04:58:50;;;;;;;0.00;0.00;;;25.60;51.50;;;;;;5011435;28;20684;-46
2024/01/18 05:01:21;;;;;;;0.00;0.00;;;25.60;51.50;;;;;;5011536;28;20633;-45
2024/01/18 05:03:52;;;;;;;0.00;0.00;;;25.60;51.50;;;;;;5011701;28;20201;-45
2024/01/18 05:06:22;;;;;;;0.00;0.00;;;25.70;51.60;;;;;;5012035;28;20196;-45
2024/01/18 05:08:53;;;;;;;0.00;0.00;;;25.70;51.60;;;;;;5012005;28;20201;-44
2024/01/18 05:11:25;;;;;;;0.00;0.00;;;25.70;51.50;;;;;;5011701;28;20197;-45
2024/01/18 05:13:56;;;;;;;0.00;0.00;;;25.60;51.40;;;;;;5035487;23;20259;-41
2024/01/18 05:16:27;;;;;;;0.00;0.00;;;25.70;51.50;;;;;;5031597;28;20303;-41
2024/01/18 05:18:58;;;;;;;0.00;0.00;;;25.60;51.40;;;;;;5030725;28;20235;-40
2024/01/18 05:21:28;;;;;;;0.00;0.00;;;25.60;51.40;;;;;;5030383;28;20661;-43
2024/01/18 05:23:59;;;;;;;0.00;0.00;;;25.70;51.50;;;;;;5030865;28;20548;-41
2024/01/18 05:26:32;;;;;;;0.00;0.00;;;25.70;51.60;;;;;;5030857;28;20629;-41
2024/01/18 05:29:03;;;;;;;0.00;0.00;;;25.70;51.60;;;;;;5031158;28;20221;-40
2024/01/18 05:31:33;;;;;;;0.00;0.00;;;25.70;51.60;;;;;;5031180;28;20216;-41
2024/01/18 05:34:04;;;;;;;0.00;0.00;;;25.70;51.60;;;;;;5031462;28;20205;-43
2024/01/18 05:36:34;;;;;;;0.00;0.00;;;25.70;51.60;;;;;;5031390;28;20203;-40
2024/01/18 05:39:05;;;;;;;0.00;0.00;;;25.70;51.60;;;;;;5031053;28;20204;-40
2024/01/18 05:41:38;;;;;;;0.05;0.05;;;25.70;51.70;;;;;;5031158;28;20224;-40
2024/01/18 05:44:09;;;;;;;0.00;0.00;;;25.60;51.60;;;;;;5031009;28;20196;-41
2024/01/18 05:46:40;;;;;;;0.00;0.00;;;25.60;51.70;;;;;;5030899;28;20648;-40
2024/01/18 05:49:10;;;;;;;0.00;0.00;;;25.60;51.70;;;;;;5032345;28;20193;-40
2024/01/18 05:51:41;;;;;;;0.00;0.00;;;25.60;51.60;;;;;;5032323;28;20217;-41
2024/01/18 05:54:12;;;;;;;0.00;0.00;;;25.70;51.70;;;;;;5034924;28;20211;-40
2024/01/18 05:56:46;;;;;;;0.00;0.00;;;25.60;51.50;;;;;;5034481;28;20204;-41
2024/01/18 05:59:16;;;;;;;0.00;0.00;;;25.70;51.50;;;;;;5034805;28;20562;-41
2024/01/18 06:01:47;;;;;;;0.00;0.00;;;25.60;51.40;;;;;;5034445;28;20227;-41
2024/01/18 06:04:18;;;;;;;0.00;0.00;;;25.70;51.40;;;;;;5034582;28;20207;-41
2024/01/18 06:06:49;;;;;;;0.00;0.00;;;25.70;51.40;;;;;;5035490;28;20200;-41
2024/01/18 06:09:20;;;;;;;0.00;0.00;;;25.70;51.40;;;;;;5034795;28;20196;-40
2024/01/18 06:11:52;;;;;;;0.00;0.00;;;25.70;51.30;;;;;;5033892;28;20220;-41
2024/01/18 06:14:23;;;;;;;0.00;0.00;;;25.70;51.30;;;;;;5034797;28;20644;-41
2024/01/18 06:16:54;;;;;;;0.00;0.00;;;25.70;51.30;;;;;;5034051;28;20200;-40
2024/01/18 06:19:25;;;;;;;0.00;0.00;;;25.80;51.30;;;;;;5033776;28;20204;-40
2024/01/18 06:21:56;;;;;;;0.00;0.00;;;25.70;51.20;;;;;;5033188;28;20311;-40
2024/01/18 06:24:28;;;;;;;0.00;0.00;;;25.80;51.30;;;;;;5033412;28;20235;-40
2024/01/18 06:27:01;;;;;;;0.00;0.00;;;25.80;51.30;;;;;;5034037;28;20188;-40
2024/01/18 06:29:32;;;;;;;0.00;0.00;;;25.80;51.20;;;;;;5033723;28;20590;-43
2024/01/18 06:32:03;;;;;;;0.00;0.00;;;25.80;51.20;;;;;;5033841;28;20308;-42
2024/01/18 06:34:34;;;;;;;0.00;0.00;;;25.80;51.20;;;;;;5034059;28;20287;-41
2024/01/18 06:37:04;;;;;;;0.00;0.00;;;25.80;51.20;;;;;;5032973;28;20196;-41
2024/01/18 06:39:35;;;;;;;0.00;0.00;;;25.80;51.20;;;;;;5032708;28;20238;-42
2024/01/18 06:42:08;;;;;;;0.00;0.00;;;25.90;51.20;;;;;;5033082;28;20227;-41
2024/01/18 06:44:39;;;;;;;0.00;0.00;;;25.80;51.20;;;;;;5033765;28;20207;-40
2024/01/18 06:47:10;;;;;;;0.00;0.00;;;25.90;51.30;;;;;;5033804;28;20660;-41
2024/01/18 06:49:41;;;;;;;0.00;0.00;;;25.90;51.20;;;;;;5033679;28;20189;-41
2024/01/18 06:52:11;;;;;;;0.00;0.00;;;25.90;51.20;;;;;;5033678;28;20216;-41
2024/01/18 06:54:44;;;;;;;0.00;0.00;;;25.90;51.20;;;;;;5032945;28;20656;-41
2024/01/18 06:57:17;;;;;;;0.00;0.00;;;26.00;51.20;;;;;;5033728;28;20223;-41
2024/01/18 06:59:49;;;;;;;0.00;0.00;;;26.00;51.20;;;;;;5032846;28;20196;-41
2024/01/18 07:02:19;;;;;;;0.00;0.00;;;26.00;51.20;;;;;;5033544;28;20466;-48
2024/01/18 07:04:50;;;;;;;0.00;0.00;;;26.00;51.20;;;;;;5033487;28;20207;-50
2024/01/18 07:07:21;;;;;;;0.00;0.00;;;26.10;51.20;;;;;;5033576;28;20208;-40
2024/01/18 07:09:51;;;;;;;0.00;0.00;;;26.10;51.20;;;;;;5033095;28;20204;-46
2024/01/18 07:12:27;;;;;;;0.00;0.00;;;26.10;51.10;;;;;;5033599;28;20227;-44
2024/01/18 07:14:57;;;;;;;0.00;0.00;;;26.20;51.20;;;;;;5033131;28;20200;-44
2024/01/18 07:17:29;;;;;;;0.00;0.00;;;26.20;51.20;;;;;;5032484;28;20283;-45
2024/01/18 07:19:59;;;;;;;0.00;0.00;;;26.20;51.10;;;;;;5032590;28;20232;-40
2024/01/18 07:22:30;;;;;;;0.00;0.00;;;26.20;51.10;;;;;;5033139;28;20227;-41
2024/01/18 07:25:01;;;;;;;0.00;0.00;;;26.20;51.00;;;;;;5032193;28;20199;-41
2024/01/18 07:27:34;;;;;;;0.00;0.00;;;26.20;51.00;;;;;;5033085;28;20203;-41
2024/01/18 07:30:05;;;;;;;0.00;0.00;;;26.20;51.00;;;;;;5033122;28;20207;-41
2024/01/18 07:32:35;;;;;;;0.00;0.00;;;26.20;51.00;;;;;;5032808;28;20251;-45
2024/01/18 07:35:06;;;;;;;0.00;0.00;;;26.20;51.60;;;;;;5032524;28;20361;-41
2024/01/18 07:37:37;;;;;;;0.00;0.00;;;26.20;50.90;;;;;;5032578;28;20192;-40
2024/01/18 07:40:08;;;;;;;0.00;0.00;;;26.20;50.90;;;;;;5032063;28;20227;-41
2024/01/18 07:42:41;;;;;;;0.00;0.00;;;26.20;50.90;;;;;;5031943;28;20247;-41
2024/01/18 07:45:14;;;;;;;0.00;0.00;;;26.20;50.90;;;;;;5032359;28;20192;-43
2024/01/18 07:47:45;;;;;;;0.00;0.00;;;26.20;50.90;;;;;;5032110;28;20199;-40
2024/01/18 07:50:16;;;;;;;0.00;0.00;;;26.20;50.90;;;;;;5032608;28;20675;-44
2024/01/18 07:52:47;;;;;;;0.00;0.00;;;26.20;50.90;;;;;;5033337;28;20224;-43
2024/01/18 07:55:18;;;;;;;0.00;0.00;;;26.20;50.80;;;;;;5031697;28;20204;-43
2024/01/18 07:57:51;;;;;;;0.00;0.00;;;26.20;50.80;;;;;;5031877;28;20200;-41
2024/01/18 08:00:22;;;;;;;0.00;0.00;;;26.30;50.90;;;;;;5031702;28;20757;-41
2024/01/18 08:02:53;;;;;;;0.00;0.00;;;26.20;50.70;;;;;;5031924;28;20227;-41
2024/01/18 08:05:24;;;;;;;0.00;0.00;;;26.20;50.70;;;;;;5032253;28;20228;-41
2024/01/18 08:07:54;;;;;;;0.00;0.00;;;26.20;50.60;;;;;;5032256;28;20236;-40
2024/01/18 08:10:26;;;;;;;0.00;0.00;;;26.20;50.60;;;;;;5031546;28;20261;-40
2024/01/18 08:12:59;;;;;;;0.00;0.00;;;26.20;50.60;;;;;;5030990;28;20220;-40
2024/01/18 08:15:30;;;;;;;0.00;0.00;;;26.20;50.60;;;;;;5031757;28;20290;-41
2024/01/18 08:18:00;;;;;;;0.00;0.00;;;26.20;50.60;;;;;;5031918;28;20203;-40
2024/01/18 08:20:31;;;;;;;0.00;0.00;;;26.20;50.50;;;;;;5031307;28;20277;-41
2024/01/18 08:23:02;;;;;;;0.00;0.00;;;26.20;50.50;;;;;;5031516;28;20212;-41
2024/01/18 08:25:32;;;;;;;0.00;0.00;;;26.20;50.50;;;;;;5031374;28;20556;-40
2024/01/18 08:28:05;;;;;;;0.00;0.00;;;26.20;50.40;;;;;;5030525;28;20224;-40
2024/01/18 08:30:36;;;;;;;0.00;0.00;;;26.10;50.40;;;;;;5031540;28;20196;-41
2024/01/18 08:33:08;;;;;;;0.00;0.00;;;26.10;50.30;;;;;;5032041;28;20224;-41
2024/01/18 08:35:39;;;;;;;0.00;0.00;;;26.10;50.30;;;;;;5031714;28;20199;-41
2024/01/18 08:38:09;;;;;;;0.00;0.00;;;26.10;50.30;;;;;;5030936;28;20200;-42
2024/01/18 08:40:40;;;;;;;0.00;0.00;;;26.10;50.40;;;;;;5031736;28;20703;-40
2024/01/18 08:43:13;;;;;;;0.00;0.00;;;26.10;50.30;;;;;;5031193;28;20704;-40
2024/01/18 08:45:43;;;;;;;0.00;0.00;;;26.00;50.30;;;;;;5031256;28;20204;-40
2024/01/18 08:48:14;;;;;;;0.00;0.00;;;26.10;50.40;;;;;;5031396;28;20382;-40
2024/01/18 08:50:45;;;;;;;0.00;0.00;;;26.10;50.40;;;;;;5031252;28;20196;-41
2024/01/18 08:53:15;;;;;;;0.00;0.00;;;26.10;50.50;;;;;;5031736;28;20274;-44
2024/01/18 08:55:46;;;;;;;0.00;0.00;;;26.00;50.70;;;;;;5027028;28;20196;-41
2024/01/18 08:58:19;;;;;;;0.00;0.00;;;26.00;50.80;;;;;;5027844;28;20203;-43
2024/01/18 09:00:49;;;;;;;0.00;0.00;;;26.00;51.00;;;;;;5027497;28;20216;-43
2024/01/18 09:03:20;;;;;;;0.00;0.00;;;26.00;51.20;;;;;;5027973;28;20223;-41
2024/01/18 09:05:51;;;;;;;0.00;0.00;;;26.00;51.30;;;;;;5027193;28;20196;-42
2024/01/18 09:08:22;;;;;;;0.00;0.00;;;26.00;51.50;;;;;;5028418;28;20258;-40
2024/01/18 09:10:53;;;;;;;0.00;0.00;;;25.90;51.50;;;;;;5027832;28;20277;-43
2024/01/18 09:13:25;;;;;;;0.00;0.00;;;25.90;51.50;;;;;;5026822;28;20354;-42
2024/01/18 09:15:56;;;;;;;0.00;0.00;;;25.90;51.50;;;;;;5027765;28;20196;-44
2024/01/18 09:18:27;;;;;;;0.00;0.00;;;25.90;51.40;;;;;;5027465;28;20690;-43
2024/01/18 09:20:58;;;;;;;0.00;0.00;;;25.90;51.30;;;;;;5027052;28;20700;-47
2024/01/18 09:23:29;;;;;;;0.00;0.00;;;25.90;51.30;;;;;;5027355;28;20224;-42
2024/01/18 09:26:00;;;;;;;0.00;0.00;;;25.90;51.30;;;;;;5027105;28;20242;-43
2024/01/18 09:28:32;;;;;;;0.00;0.00;;;25.90;51.30;;;;;;5027184;28;20200;-44
2024/01/18 09:31:03;;;;;;;0.00;0.00;;;25.90;51.20;;;;;;5027928;28;20645;-46
2024/01/18 09:33:33;;;;;;;0.00;0.00;;;25.90;51.20;;;;;;5027466;28;20605;-41
2024/01/18 09:36:04;;;;;;;0.00;0.00;;;25.90;51.20;;;;;;5026969;28;20679;-40
2024/01/18 09:38:38;;;;;;;0.00;0.00;;;25.90;51.10;;;;;;5027013;28;20204;-46
2024/01/18 09:41:10;;;;;;;0.00;0.00;;;25.80;51.10;;;;;;5027164;28;20621;-43
2024/01/18 09:43:43;;;;;;;0.00;0.00;;;25.80;51.10;;;;;;5027460;28;20598;-40
2024/01/18 09:46:14;;;;;;;0.00;0.00;;;25.80;51.10;;;;;;5026121;28;20200;-43
2024/01/18 09:48:45;;;;;;;0.00;0.00;;;25.80;51.10;;;;;;5027744;28;20208;-40
2024/01/18 09:51:18;;;;;;;0.00;0.00;;;25.80;51.20;;;;;;5026448;28;20192;-48
2024/01/18 09:53:54;;;;;;;0.00;0.00;;;25.80;51.20;;;;;;5027476;28;20656;-47
2024/01/18 09:56:28;;;;;;;0.00;0.00;;;25.70;51.30;;;;;;5026866;28;20565;-45
2024/01/18 09:59:01;;;;;;;0.00;0.00;;;25.70;51.30;;;;;;5027404;28;20529;-47
2024/01/18 10:01:32;;;;;;;0.00;0.00;;;25.70;51.30;;;;;;5027460;28;20228;-45
2024/01/18 10:04:03;;;;;;;0.00;0.00;;;25.70;51.30;;;;;;5026650;28;20687;-46
2024/01/18 10:06:34;;;;;;;0.00;0.00;;;25.70;51.30;;;;;;5027583;28;20200;-46
2024/01/18 10:09:05;;;;;;;0.00;0.00;;;25.70;51.30;;;;;;5026972;28;20247;-47
2024/01/18 10:11:36;;;;;;;0.00;0.00;;;25.60;51.20;;;;;;5027313;28;20250;-44
2024/01/18 10:14:08;;;;;;;0.00;0.00;;;25.60;51.20;;;;;;5027565;28;20204;-47
2024/01/18 10:16:41;;;;;;;0.00;0.00;;;25.60;51.20;;;;;;5026462;28;20203;-45
2024/01/18 10:19:14;;;;;;;0.00;0.00;;;25.60;51.20;;;;;;5026670;28;20666;-47
2024/01/18 10:21:45;;;;;;;0.00;0.00;;;25.60;51.20;;;;;;5027240;28;20271;-41
2024/01/18 10:24:17;;;;;;;0.00;0.00;;;25.60;51.10;;;;;;5026246;28;20200;-43
2024/01/18 10:27:05;;;;;;;0.00;0.00;;;25.60;51.10;;;;;;5027179;28;20200;-44
2024/01/18 10:29:43;;;;;;;0.00;0.00;;;25.60;51.10;;;;;;5027424;28;20231;-44
2024/01/18 10:32:18;;;;;;;0.00;0.00;;;25.60;51.10;;;;;;5027189;28;20312;-46
2024/01/18 10:34:53;;;;;;;0.00;0.00;;;25.60;51.10;;;;;;5026730;28;20589;-45
2024/01/18 10:37:31;;;;;;;0.00;0.00;;;25.60;51.10;;;;;;5030297;28;20207;-45
2024/01/18 10:40:08;;;;;;;0.00;0.00;;;25.60;51.10;;;;;;5030599;28;20273;-44
2024/01/18 10:42:42;;;;;;;0.00;0.00;;;25.60;51.10;;;;;;5030152;28;20238;-47
2024/01/18 10:45:16;;;;;;;0.00;0.00;;;25.50;51.00;;;;;;5028498;28;20211;-46
2024/01/18 10:47:47;;;;;;;0.00;0.00;;;25.50;51.00;;;;;;5029785;28;20231;-47
2024/01/18 10:50:18;;;;;;;0.00;0.00;;;25.50;51.30;;;;;;5029675;28;20196;-40
2024/01/18 10:52:50;;;;;;;0.03;0.03;;;25.50;51.00;;;;;;5030407;28;20791;-40
2024/01/18 10:55:21;;;;;;;0.00;0.00;;;25.50;51.00;;;;;;5029883;28;20203;-40
2024/01/18 10:57:51;;;;;;;0.00;0.00;;;25.40;50.90;;;;;;5030760;28;20200;-40
2024/01/18 11:00:24;;;;;;;0.00;0.00;;;25.40;50.90;;;;;;5030416;28;20196;-40
2024/01/18 11:02:55;;;;;;;0.00;0.00;;;25.50;50.90;;;;;;5030209;28;20233;-40
2024/01/18 11:05:26;;;;;;;0.00;0.00;;;25.40;50.80;;;;;;5029652;28;20200;-40
2024/01/18 11:07:58;;;;;;;0.00;0.00;;;25.40;50.80;;;;;;5030332;28;20287;-41
2024/01/18 11:10:28;;;;;;;0.00;0.00;;;25.40;50.80;;;;;;5032751;28;20283;-43
2024/01/18 11:12:59;;;;;;;0.00;0.00;;;25.40;50.70;;;;;;5034095;28;20215;-43
2024/01/18 11:15:37;;;;;;;0.00;0.00;;;25.40;50.70;;;;;;5033831;28;20204;-44
2024/01/18 11:18:16;;;;;;;0.00;0.00;;;25.40;50.70;;;;;;5033448;28;20192;-41
2024/01/18 11:21:08;;;;;;;0.00;0.00;;;25.40;50.70;;;;;;5033448;28;20350;-41
2024/01/18 11:23:43;;;;;;;0.00;0.00;;;25.40;50.70;;;;;;5033557;28;20242;-43
2024/01/18 11:26:22;;;;;;;0.00;0.00;;;25.40;50.70;;;;;;5033502;28;20282;-43
2024/01/18 11:29:13;;;;;;;0.00;0.00;;;25.40;50.70;;;;;;5033050;28;20696;-46
2024/01/18 11:31:51;;;;;;;0.00;0.00;;;25.30;50.60;;;;;;5033236;28;20575;-42
2024/01/18 11:34:32;;;;;;;0.00;0.00;;;25.30;50.60;;;;;;5033374;28;20200;-44
2024/01/18 11:37:13;;;;;;;0.00;0.00;;;25.30;50.60;;;;;;5033366;28;20668;-43
2024/01/18 11:40:00;;;;;;;0.00;0.00;;;25.30;50.60;;;;;;5033363;28;20207;-43
2024/01/18 11:42:31;;;;;;;0.00;0.00;;;25.30;50.60;;;;;;5032798;28;20314;-44
2024/01/18 11:45:05;;;;;;;0.00;0.00;;;25.30;50.60;;;;;;5033244;28;20199;-46
2024/01/18 11:47:38;;;;;;;0.00;0.00;;;25.30;50.60;;;;;;5032652;28;20243;-44
2024/01/18 11:50:11;;;;;;;0.00;0.00;;;25.30;50.60;;;;;;5030366;28;20224;-41
2024/01/18 11:52:43;;;;;;;0.00;0.00;;;25.20;50.50;;;;;;5032455;28;20212;-43
2024/01/18 11:55:17;;;;;;;0.10;0.10;;;25.20;50.50;;;;;;5032692;28;20275;-44
2024/01/18 11:57:48;;;;;;;0.00;0.00;;;25.20;50.50;;;;;;5030095;28;20192;-43
2024/01/18 12:00:19;;;;;;;0.00;0.00;;;25.20;50.50;;;;;;5031968;28;20250;-40
2024/01/18 12:02:51;;;;;;;0.10;0.10;;;25.20;50.50;;;;;;5030045;28;20227;-44
2024/01/18 12:05:23;;;;;;;0.00;0.00;;;25.20;50.50;;;;;;5031969;28;20188;-43
2024/01/18 12:07:54;;;;;;;0.00;0.00;;;25.20;50.40;;;;;;5032118;28;20240;-42
2024/01/18 12:10:26;;;;;;;0.00;0.00;;;25.20;50.40;;;;;;5032373;28;20188;-41
2024/01/18 12:12:56;;;;;;;0.00;0.00;;;25.20;50.40;;;;;;5033264;28;20254;-43
2024/01/18 12:15:27;;;;;;;0.03;0.03;;;25.20;50.40;;;;;;5031607;28;20199;-47
2024/01/18 12:18:01;;;;;;;0.00;0.00;;;25.20;50.40;;;;;;5031995;28;20196;-44
2024/01/18 12:20:31;;;;;;;0.00;0.00;;;25.20;50.40;;;;;;5032086;28;20234;-44
2024/01/18 12:23:04;;;;;;;0.00;0.00;;;25.20;50.40;;;;;;5031986;28;20243;-44
2024/01/18 12:25:35;;;;;;;0.00;0.00;;;25.10;50.40;;;;;;5031524;28;20193;-42
2024/01/18 12:28:08;;;;;;;0.00;0.00;;;25.20;50.40;;;;;;5031810;28;20561;-41
2024/01/18 12:30:42;;;;;;;0.10;0.10;;;25.10;50.30;;;;;;5029448;28;20196;-41
2024/01/18 12:33:16;;;;;;;0.00;0.00;;;25.10;50.30;;;;;;5031460;28;20220;-46
2024/01/18 12:35:47;;;;;;;0.00;0.00;;;25.10;50.30;;;;;;5031978;28;20606;-42
2024/01/18 12:38:17;;;;;;;0.00;0.00;;;25.10;50.30;;;;;;5031954;28;20250;-47
2024/01/18 12:40:48;;;;;;;0.00;0.00;;;25.10;50.30;;;;;;5031662;28;20195;-42
2024/01/18 12:43:19;;;;;;;0.00;0.00;;;25.10;50.30;;;;;;5031177;28;20228;-52
2024/01/18 12:45:54;;;;;;;0.00;0.00;;;25.10;50.20;;;;;;5032240;28;20553;-45
2024/01/18 12:48:28;;;;;;;0.00;0.00;;;25.10;50.20;;;;;;5031981;28;20200;-43
2024/01/18 12:50:59;;;;;;;0.00;0.00;;;25.10;50.20;;;;;;5031738;28;20231;-44
2024/01/18 12:53:29;;;;;;;0.00;0.00;;;25.10;50.20;;;;;;5031587;28;20220;-44
2024/01/18 12:56:00;;;;;;;0.00;0.00;;;25.10;50.20;;;;;;5031666;28;20207;-46
2024/01/18 12:58:31;;;;;;;0.00;0.00;;;25.10;50.10;;;;;;5031190;28;20204;-44
2024/01/18 13:01:02;;;;;;;0.00;0.00;;;25.10;50.20;;;;;;5031752;28;20266;-41
2024/01/18 13:03:35;;;;;;;0.00;0.00;;;25.10;50.10;;;;;;5031698;28;20406;-44
2024/01/18 13:06:05;;;;;;;0.00;0.00;;;25.10;50.10;;;;;;5031207;28;20196;-41
2024/01/18 13:08:38;;;;;;;0.00;0.00;;;25.10;50.10;;;;;;5030701;28;20207;-44
2024/01/18 13:11:09;;;;;;;0.00;0.00;;;25.10;50.10;;;;;;5031039;28;20203;-44